GIA812 WIII-WMKK
Flight info
| Callsign | GIA812 |
|---|---|
| Flight time | 1h 23m |
| Altitude | 33998 |
| Route | DOLTA2A DOLTA A585 PKU/N0483F390 N633 SALAX SALAX2J |
| Aircraft | B77W/H-SDE1E2E3FGHIJ2J3J4J5M1RWXY/LB1D1 |
Departure
| Time | 2026-05-06 14:03 |
|---|---|
| Airport | Soekarno-Hatta International Airport (WIII) |
Arrival
| Time | 2026-05-06 15:27 |
|---|---|
| Airport | Kuala Lumpur International Airport (WMKK) |
| Time | Latitude | Longitude | Altitude | Speed | Heading |
|---|---|---|---|---|---|
| 2026-05-06 13:49 | -6.11731 | 106.66533 | 37 ft | 0 kts | 158° |
| 2026-05-06 13:54 | -6.11729 | 106.66532 | 37 ft | 3 kts | 161° |
| 2026-05-06 13:55 | -6.11709 | 106.66530 | 36 ft | 3 kts | 200° |
| 2026-05-06 13:55 | -6.11693 | 106.66541 | 35 ft | 3 kts | 238° |
| 2026-05-06 13:55 | -6.11692 | 106.66541 | 35 ft | 0 kts | 240° |
| 2026-05-06 13:58 | -6.11697 | 106.66533 | 34 ft | 5 kts | 240° |
| 2026-05-06 13:58 | -6.11706 | 106.66470 | 37 ft | 14 kts | 281° |
| 2026-05-06 13:58 | -6.11614 | 106.66392 | 37 ft | 23 kts | 335° |
| 2026-05-06 13:58 | -6.11458 | 106.66331 | 37 ft | 23 kts | 339° |
| 2026-05-06 13:59 | -6.11386 | 106.66297 | 36 ft | 8 kts | 321° |
| 2026-05-06 13:59 | -6.11370 | 106.66238 | 37 ft | 11 kts | 263° |
| 2026-05-06 13:59 | -6.11397 | 106.66154 | 37 ft | 15 kts | 248° |
| 2026-05-06 13:59 | -6.11443 | 106.66041 | 36 ft | 20 kts | 248° |
| 2026-05-06 14:00 | -6.11506 | 106.65889 | 33 ft | 26 kts | 248° |
| 2026-05-06 14:00 | -6.11577 | 106.65703 | 34 ft | 30 kts | 249° |
| 2026-05-06 14:00 | -6.11662 | 106.65496 | 35 ft | 34 kts | 248° |
| 2026-05-06 14:00 | -6.11751 | 106.65272 | 40 ft | 36 kts | 250° |
| 2026-05-06 14:01 | -6.11840 | 106.65029 | 42 ft | 38 kts | 250° |
| 2026-05-06 14:01 | -6.11940 | 106.64768 | 42 ft | 41 kts | 249° |
| 2026-05-06 14:01 | -6.12051 | 106.64493 | 41 ft | 44 kts | 248° |
| 2026-05-06 14:01 | -6.12171 | 106.64199 | 42 ft | 47 kts | 247° |
| 2026-05-06 14:02 | -6.12245 | 106.64007 | 45 ft | 8 kts | 256° |
| 2026-05-06 14:02 | -6.12250 | 106.63953 | 46 ft | 8 kts | 275° |
| 2026-05-06 14:02 | -6.12227 | 106.63903 | 47 ft | 8 kts | 307° |
| 2026-05-06 14:02 | -6.12179 | 106.63875 | 46 ft | 9 kts | 350° |
| 2026-05-06 14:03 | -6.12119 | 106.63897 | 44 ft | 11 kts | 39° |
| 2026-05-06 14:03 | -6.12044 | 106.64013 | 42 ft | 56 kts | 63° |
| 2026-05-06 14:03 | -6.11733 | 106.64790 | 46 ft | 182 kts | 68° |
| 2026-05-06 14:03 | -6.11177 | 106.66184 | 752 ft | 220 kts | 69° |
| 2026-05-06 14:04 | -6.10647 | 106.67508 | 2901 ft | 197 kts | 69° |
| 2026-05-06 14:04 | -6.10093 | 106.68893 | 3461 ft | 238 kts | 69° |
| 2026-05-06 14:04 | -6.09482 | 106.70415 | 4687 ft | 213 kts | 69° |
| 2026-05-06 14:04 | -6.08914 | 106.71808 | 5731 ft | 231 kts | 69° |
| 2026-05-06 14:05 | -6.08276 | 106.73346 | 6604 ft | 228 kts | 68° |
| 2026-05-06 14:05 | -6.07572 | 106.74748 | 7649 ft | 234 kts | 52° |
| 2026-05-06 14:05 | -6.06154 | 106.75708 | 7959 ft | 272 kts | 17° |
| 2026-05-06 14:05 | -6.04208 | 106.75672 | 8673 ft | 292 kts | 345° |
| 2026-05-06 14:06 | -6.02358 | 106.74766 | 9651 ft | 301 kts | 327° |
| 2026-05-06 14:06 | -6.00687 | 106.73463 | 10556 ft | 310 kts | 320° |
| 2026-05-06 14:06 | -5.99033 | 106.71957 | 10986 ft | 339 kts | 317° |
| 2026-05-06 14:06 | -5.97240 | 106.70251 | 11237 ft | 370 kts | 317° |
| 2026-05-06 14:07 | -5.95340 | 106.68433 | 11995 ft | 382 kts | 317° |
| 2026-05-06 14:07 | -5.93389 | 106.66582 | 12898 ft | 390 kts | 317° |
| 2026-05-06 14:07 | -5.91393 | 106.64709 | 13858 ft | 395 kts | 317° |
| 2026-05-06 14:07 | -5.89369 | 106.62826 | 14759 ft | 399 kts | 318° |
| 2026-05-06 14:08 | -5.87322 | 106.60935 | 15680 ft | 402 kts | 318° |
| 2026-05-06 14:08 | -5.85248 | 106.59027 | 16621 ft | 406 kts | 318° |
| 2026-05-06 14:08 | -5.83156 | 106.57106 | 17491 ft | 410 kts | 318° |
| 2026-05-06 14:08 | -5.81030 | 106.55157 | 18318 ft | 416 kts | 318° |
| 2026-05-06 14:09 | -5.78881 | 106.53188 | 19019 ft | 421 kts | 319° |
| 2026-05-06 14:09 | -5.76700 | 106.51188 | 19740 ft | 426 kts | 319° |
| 2026-05-06 14:09 | -5.74499 | 106.49171 | 20447 ft | 431 kts | 319° |
| 2026-05-06 14:09 | -5.72277 | 106.47135 | 21166 ft | 435 kts | 319° |
| 2026-05-06 14:10 | -5.70031 | 106.45077 | 21871 ft | 440 kts | 319° |
| 2026-05-06 14:10 | -5.67760 | 106.42996 | 22544 ft | 444 kts | 319° |
| 2026-05-06 14:10 | -5.65459 | 106.40887 | 23046 ft | 452 kts | 319° |
| 2026-05-06 14:10 | -5.63122 | 106.38745 | 22991 ft | 454 kts | 319° |
| 2026-05-06 14:11 | -5.60802 | 106.36619 | 23004 ft | 451 kts | 319° |
| 2026-05-06 14:11 | -5.58493 | 106.34501 | 23004 ft | 448 kts | 319° |
| 2026-05-06 14:11 | -5.56196 | 106.32380 | 23026 ft | 450 kts | 318° |
| 2026-05-06 14:11 | -5.53937 | 106.30200 | 23438 ft | 450 kts | 317° |
| 2026-05-06 14:12 | -5.51662 | 106.28001 | 23926 ft | 456 kts | 317° |
| 2026-05-06 14:12 | -5.49378 | 106.25836 | 24452 ft | 459 kts | 318° |
| 2026-05-06 14:12 | -5.47026 | 106.23653 | 25002 ft | 463 kts | 319° |
| 2026-05-06 14:12 | -5.44635 | 106.21467 | 25544 ft | 466 kts | 319° |
| 2026-05-06 14:13 | -5.42219 | 106.19277 | 26074 ft | 470 kts | 319° |
| 2026-05-06 14:13 | -5.39776 | 106.17071 | 26602 ft | 474 kts | 319° |
| 2026-05-06 14:13 | -5.37305 | 106.14841 | 27128 ft | 478 kts | 319° |
| 2026-05-06 14:13 | -5.34833 | 106.12607 | 27640 ft | 481 kts | 319° |
| 2026-05-06 14:14 | -5.32334 | 106.10348 | 28144 ft | 485 kts | 319° |
| 2026-05-06 14:14 | -5.29818 | 106.08071 | 28637 ft | 489 kts | 319° |
| 2026-05-06 14:14 | -5.27282 | 106.05776 | 29117 ft | 493 kts | 319° |
| 2026-05-06 14:14 | -5.24732 | 106.03468 | 29688 ft | 494 kts | 319° |
| 2026-05-06 14:15 | -5.22186 | 106.01163 | 30355 ft | 491 kts | 319° |
| 2026-05-06 14:15 | -5.19820 | 105.99022 | 30982 ft | 489 kts | 319° |
| 2026-05-06 14:15 | -5.17311 | 105.96786 | 31636 ft | 486 kts | 321° |
| 2026-05-06 14:15 | -5.14608 | 105.94752 | 32287 ft | 483 kts | 328° |
| 2026-05-06 14:16 | -5.11729 | 105.93039 | 32953 ft | 480 kts | 332° |
| 2026-05-06 14:16 | -5.08816 | 105.91404 | 33623 ft | 477 kts | 332° |
| 2026-05-06 14:16 | -5.05900 | 105.89773 | 33911 ft | 482 kts | 332° |
| 2026-05-06 14:16 | -5.03005 | 105.88147 | 33867 ft | 482 kts | 332° |
| 2026-05-06 14:17 | -4.97229 | 105.84870 | 33869 ft | 476 kts | 332° |
| 2026-05-06 14:17 | -4.91489 | 105.81586 | 33894 ft | 475 kts | 332° |
| 2026-05-06 14:18 | -4.85759 | 105.78302 | 33874 ft | 475 kts | 332° |
| 2026-05-06 14:18 | -4.79967 | 105.74985 | 33895 ft | 488 kts | 332° |
| 2026-05-06 14:19 | -4.73985 | 105.71562 | 33895 ft | 503 kts | 332° |
| 2026-05-06 14:19 | -4.67837 | 105.68044 | 33894 ft | 514 kts | 332° |
| 2026-05-06 14:20 | -4.61581 | 105.64464 | 33880 ft | 521 kts | 332° |
| 2026-05-06 14:20 | -4.56002 | 105.61272 | 33893 ft | 526 kts | 331° |
| 2026-05-06 14:21 | -4.52139 | 105.59062 | 33882 ft | 529 kts | 331° |
| 2026-05-06 14:21 | -4.45725 | 105.55393 | 33883 ft | 532 kts | 331° |
| 2026-05-06 14:22 | -4.39290 | 105.51714 | 33886 ft | 532 kts | 331° |
| 2026-05-06 14:22 | -4.32871 | 105.48044 | 33877 ft | 529 kts | 331° |
| 2026-05-06 14:23 | -4.26704 | 105.44044 | 33868 ft | 527 kts | 321° |
| 2026-05-06 14:23 | -4.21198 | 105.39292 | 33880 ft | 525 kts | 319° |
| 2026-05-06 14:24 | -4.15683 | 105.34478 | 33867 ft | 525 kts | 320° |
| 2026-05-06 14:24 | -4.10120 | 105.29680 | 33875 ft | 525 kts | 320° |
| 2026-05-06 14:25 | -4.04555 | 105.24918 | 33877 ft | 527 kts | 320° |
| 2026-05-06 14:25 | -3.98999 | 105.20172 | 33875 ft | 529 kts | 320° |
| 2026-05-06 14:26 | -3.93426 | 105.15409 | 33872 ft | 530 kts | 320° |
| 2026-05-06 14:26 | -3.87808 | 105.10604 | 33870 ft | 531 kts | 320° |
| 2026-05-06 14:27 | -3.82183 | 105.05794 | 33869 ft | 531 kts | 320° |
| 2026-05-06 14:27 | -3.76572 | 105.00996 | 33867 ft | 531 kts | 320° |
| 2026-05-06 14:28 | -3.71206 | 104.96409 | 33869 ft | 530 kts | 320° |
| 2026-05-06 14:28 | -3.65605 | 104.91622 | 33872 ft | 529 kts | 320° |
| 2026-05-06 14:29 | -3.60004 | 104.86836 | 33867 ft | 528 kts | 320° |
| 2026-05-06 14:29 | -3.54409 | 104.82056 | 33868 ft | 527 kts | 320° |
| 2026-05-06 14:30 | -3.49734 | 104.78062 | 33865 ft | 527 kts | 320° |
| 2026-05-06 14:30 | -3.44190 | 104.73328 | 33867 ft | 527 kts | 320° |
| 2026-05-06 14:31 | -3.38572 | 104.68530 | 33874 ft | 527 kts | 320° |
| 2026-05-06 14:31 | -3.32992 | 104.63765 | 33867 ft | 528 kts | 320° |
| 2026-05-06 14:32 | -3.27442 | 104.59027 | 33868 ft | 528 kts | 320° |
| 2026-05-06 14:32 | -3.21855 | 104.54259 | 33869 ft | 528 kts | 320° |
| 2026-05-06 14:33 | -3.16263 | 104.49486 | 33869 ft | 528 kts | 320° |
| 2026-05-06 14:33 | -3.10686 | 104.44727 | 33872 ft | 528 kts | 320° |
| 2026-05-06 14:34 | -3.05072 | 104.39937 | 33870 ft | 528 kts | 320° |
| 2026-05-06 14:34 | -2.99508 | 104.35191 | 33866 ft | 528 kts | 320° |
| 2026-05-06 14:35 | -2.93912 | 104.30417 | 33876 ft | 528 kts | 320° |
| 2026-05-06 14:35 | -2.88330 | 104.25657 | 33866 ft | 527 kts | 320° |
| 2026-05-06 14:36 | -2.82754 | 104.20902 | 33868 ft | 526 kts | 321° |
| 2026-05-06 14:36 | -2.77187 | 104.16155 | 33875 ft | 525 kts | 321° |
| 2026-05-06 14:37 | -2.71638 | 104.11425 | 33870 ft | 525 kts | 321° |
| 2026-05-06 14:37 | -2.66064 | 104.06674 | 33872 ft | 525 kts | 321° |
| 2026-05-06 14:38 | -2.60496 | 104.01928 | 33871 ft | 526 kts | 321° |
| 2026-05-06 14:38 | -2.55154 | 103.97375 | 33872 ft | 526 kts | 321° |
| 2026-05-06 14:39 | -2.49585 | 103.92630 | 33877 ft | 526 kts | 321° |
| 2026-05-06 14:39 | -2.44011 | 103.87882 | 33879 ft | 526 kts | 321° |
| 2026-05-06 14:40 | -2.38444 | 103.83139 | 33879 ft | 527 kts | 321° |
| 2026-05-06 14:40 | -2.32855 | 103.78378 | 33879 ft | 528 kts | 321° |
| 2026-05-06 14:41 | -2.27266 | 103.73618 | 33882 ft | 528 kts | 321° |
| 2026-05-06 14:41 | -2.21672 | 103.68854 | 33873 ft | 529 kts | 321° |
| 2026-05-06 14:42 | -2.16071 | 103.64084 | 33881 ft | 530 kts | 321° |
| 2026-05-06 14:42 | -2.10484 | 103.59327 | 33885 ft | 530 kts | 321° |
| 2026-05-06 14:43 | -2.04865 | 103.54543 | 33884 ft | 531 kts | 321° |
| 2026-05-06 14:43 | -1.99272 | 103.49782 | 33881 ft | 531 kts | 321° |
| 2026-05-06 14:44 | -1.93649 | 103.44996 | 33880 ft | 532 kts | 321° |
| 2026-05-06 14:45 | -1.85177 | 103.37785 | 33888 ft | 532 kts | 321° |
| 2026-05-06 14:45 | -1.79522 | 103.32972 | 33889 ft | 533 kts | 321° |
| 2026-05-06 14:46 | -1.73866 | 103.28159 | 33886 ft | 534 kts | 321° |
| 2026-05-06 14:46 | -1.68216 | 103.23352 | 33886 ft | 534 kts | 321° |
| 2026-05-06 14:47 | -1.62559 | 103.18539 | 33889 ft | 534 kts | 321° |
| 2026-05-06 14:47 | -1.56897 | 103.13722 | 33888 ft | 534 kts | 321° |
| 2026-05-06 14:48 | -1.51236 | 103.08907 | 33884 ft | 534 kts | 321° |
| 2026-05-06 14:48 | -1.45582 | 103.04097 | 33894 ft | 534 kts | 321° |
| 2026-05-06 14:49 | -1.40132 | 102.99461 | 33890 ft | 534 kts | 321° |
| 2026-05-06 14:49 | -1.34506 | 102.94676 | 33890 ft | 534 kts | 321° |
| 2026-05-06 14:50 | -1.28811 | 102.89832 | 33892 ft | 534 kts | 321° |
| 2026-05-06 14:50 | -1.23172 | 102.85037 | 33892 ft | 533 kts | 321° |
| 2026-05-06 14:51 | -1.17506 | 102.80219 | 33895 ft | 534 kts | 321° |
| 2026-05-06 14:51 | -1.11851 | 102.75410 | 33893 ft | 534 kts | 321° |
| 2026-05-06 14:52 | -1.06197 | 102.70603 | 33896 ft | 534 kts | 320° |
| 2026-05-06 14:52 | -1.00539 | 102.65793 | 33893 ft | 534 kts | 320° |
| 2026-05-06 14:53 | -0.94911 | 102.61008 | 33892 ft | 534 kts | 320° |
| 2026-05-06 14:53 | -0.89263 | 102.56205 | 33884 ft | 534 kts | 320° |
| 2026-05-06 14:54 | -0.83597 | 102.51389 | 33884 ft | 534 kts | 320° |
| 2026-05-06 14:54 | -0.77944 | 102.46584 | 33879 ft | 534 kts | 320° |
| 2026-05-06 14:55 | -0.72289 | 102.41777 | 33886 ft | 533 kts | 320° |
| 2026-05-06 14:55 | -0.66676 | 102.37005 | 33877 ft | 533 kts | 321° |
| 2026-05-06 14:56 | -0.60990 | 102.32172 | 33870 ft | 532 kts | 321° |
| 2026-05-06 14:56 | -0.55356 | 102.27383 | 33867 ft | 532 kts | 321° |
| 2026-05-06 14:57 | -0.49719 | 102.22592 | 33872 ft | 532 kts | 321° |
| 2026-05-06 14:57 | -0.44117 | 102.17831 | 33864 ft | 532 kts | 321° |
| 2026-05-06 14:58 | -0.38480 | 102.13040 | 33864 ft | 532 kts | 321° |
| 2026-05-06 14:58 | -0.32844 | 102.08250 | 33861 ft | 531 kts | 321° |
| 2026-05-06 14:59 | -0.27221 | 102.03471 | 33855 ft | 531 kts | 321° |
| 2026-05-06 14:59 | -0.21775 | 101.98842 | 33857 ft | 533 kts | 321° |
| 2026-05-06 15:00 | -0.16112 | 101.94030 | 33860 ft | 535 kts | 321° |
| 2026-05-06 15:00 | -0.10444 | 101.89214 | 33861 ft | 536 kts | 321° |
| 2026-05-06 15:01 | -0.04752 | 101.84376 | 33859 ft | 536 kts | 321° |
| 2026-05-06 15:01 | 0.00897 | 101.79574 | 33858 ft | 536 kts | 321° |
| 2026-05-06 15:02 | 0.06581 | 101.74743 | 33852 ft | 535 kts | 321° |
| 2026-05-06 15:02 | 0.12247 | 101.69928 | 33848 ft | 535 kts | 321° |
| 2026-05-06 15:03 | 0.17913 | 101.65113 | 33851 ft | 534 kts | 320° |
| 2026-05-06 15:03 | 0.23577 | 101.60298 | 33842 ft | 534 kts | 320° |
| 2026-05-06 15:04 | 0.29227 | 101.55495 | 33838 ft | 533 kts | 320° |
| 2026-05-06 15:04 | 0.34884 | 101.50686 | 33834 ft | 534 kts | 320° |
| 2026-05-06 15:05 | 0.40790 | 101.46262 | 33823 ft | 529 kts | 335° |
| 2026-05-06 15:05 | 0.44236 | 101.44992 | 33839 ft | 528 kts | 347° |
| 2026-05-06 15:05 | 0.47852 | 101.44410 | 33832 ft | 527 kts | 359° |
| 2026-05-06 15:06 | 0.55067 | 101.44866 | 33842 ft | 524 kts | 6° |
| 2026-05-06 15:06 | 0.62364 | 101.45486 | 33839 ft | 527 kts | 6° |
| 2026-05-06 15:07 | 0.69686 | 101.46029 | 33842 ft | 528 kts | 5° |
| 2026-05-06 15:07 | 0.75836 | 101.46448 | 33849 ft | 528 kts | 5° |
| 2026-05-06 15:08 | 0.83145 | 101.46937 | 33843 ft | 525 kts | 5° |
| 2026-05-06 15:08 | 0.90435 | 101.47430 | 33846 ft | 523 kts | 5° |
| 2026-05-06 15:08 | 0.94075 | 101.47678 | 33615 ft | 524 kts | 5° |
| 2026-05-06 15:09 | 0.97689 | 101.48004 | 33250 ft | 520 kts | 9° |
| 2026-05-06 15:09 | 1.01156 | 101.48645 | 32743 ft | 508 kts | 14° |
| 2026-05-06 15:09 | 1.04525 | 101.49593 | 32244 ft | 496 kts | 21° |
| 2026-05-06 15:09 | 1.07721 | 101.50807 | 31772 ft | 487 kts | 23° |
| 2026-05-06 15:10 | 1.10840 | 101.52035 | 31305 ft | 484 kts | 23° |
| 2026-05-06 15:10 | 1.14025 | 101.53295 | 30866 ft | 502 kts | 23° |
| 2026-05-06 15:10 | 1.17336 | 101.54598 | 30413 ft | 517 kts | 23° |
| 2026-05-06 15:10 | 1.20681 | 101.55901 | 29967 ft | 516 kts | 23° |
| 2026-05-06 15:11 | 1.24029 | 101.57194 | 29455 ft | 514 kts | 23° |
| 2026-05-06 15:11 | 1.27349 | 101.58467 | 28939 ft | 511 kts | 22° |
| 2026-05-06 15:11 | 1.30720 | 101.59589 | 28418 ft | 509 kts | 17° |
| 2026-05-06 15:11 | 1.34163 | 101.60502 | 27940 ft | 517 kts | 16° |
| 2026-05-06 15:12 | 1.37684 | 101.61385 | 27461 ft | 523 kts | 15° |
| 2026-05-06 15:12 | 1.41222 | 101.62259 | 26982 ft | 523 kts | 15° |
| 2026-05-06 15:12 | 1.44734 | 101.63134 | 26506 ft | 519 kts | 16° |
| 2026-05-06 15:12 | 1.48218 | 101.64015 | 26031 ft | 514 kts | 16° |
| 2026-05-06 15:13 | 1.51677 | 101.64903 | 25571 ft | 511 kts | 16° |
| 2026-05-06 15:13 | 1.55060 | 101.65780 | 25126 ft | 507 kts | 17° |
| 2026-05-06 15:13 | 1.58483 | 101.66672 | 24679 ft | 503 kts | 17° |
| 2026-05-06 15:13 | 1.61875 | 101.67557 | 24239 ft | 499 kts | 17° |
| 2026-05-06 15:14 | 1.65224 | 101.68431 | 23809 ft | 495 kts | 17° |
| 2026-05-06 15:14 | 1.68499 | 101.69285 | 23382 ft | 491 kts | 17° |
| 2026-05-06 15:14 | 1.71793 | 101.70143 | 22856 ft | 487 kts | 17° |
| 2026-05-06 15:14 | 1.75059 | 101.70993 | 22362 ft | 482 kts | 17° |
| 2026-05-06 15:15 | 1.78291 | 101.71833 | 21862 ft | 478 kts | 16° |
| 2026-05-06 15:15 | 1.81493 | 101.72667 | 21373 ft | 473 kts | 16° |
| 2026-05-06 15:15 | 1.84668 | 101.73492 | 20893 ft | 469 kts | 16° |
| 2026-05-06 15:15 | 1.87810 | 101.74310 | 20422 ft | 465 kts | 16° |
| 2026-05-06 15:16 | 1.90921 | 101.75120 | 19966 ft | 461 kts | 16° |
| 2026-05-06 15:16 | 1.94006 | 101.75922 | 19511 ft | 456 kts | 16° |
| 2026-05-06 15:16 | 1.97048 | 101.76714 | 19016 ft | 441 kts | 16° |
| 2026-05-06 15:16 | 1.99893 | 101.77451 | 18452 ft | 406 kts | 16° |
| 2026-05-06 15:17 | 2.02518 | 101.78131 | 17887 ft | 381 kts | 16° |
| 2026-05-06 15:17 | 2.05047 | 101.78789 | 17303 ft | 372 kts | 16° |
| 2026-05-06 15:17 | 2.07537 | 101.79439 | 16734 ft | 366 kts | 16° |
| 2026-05-06 15:17 | 2.09986 | 101.80078 | 16170 ft | 361 kts | 16° |
| 2026-05-06 15:18 | 2.12395 | 101.80706 | 15640 ft | 356 kts | 16° |
| 2026-05-06 15:18 | 2.14784 | 101.81330 | 15089 ft | 353 kts | 16° |
| 2026-05-06 15:18 | 2.17159 | 101.81948 | 14522 ft | 351 kts | 16° |
| 2026-05-06 15:18 | 2.19581 | 101.82581 | 13985 ft | 373 kts | 16° |
| 2026-05-06 15:19 | 2.22160 | 101.83255 | 13414 ft | 392 kts | 16° |
| 2026-05-06 15:19 | 2.24809 | 101.83946 | 12801 ft | 401 kts | 15° |
| 2026-05-06 15:19 | 2.27463 | 101.84635 | 12180 ft | 392 kts | 15° |
| 2026-05-06 15:19 | 2.30122 | 101.85326 | 11588 ft | 397 kts | 15° |
| 2026-05-06 15:20 | 2.32797 | 101.86022 | 11000 ft | 398 kts | 15° |
| 2026-05-06 15:20 | 2.35469 | 101.86718 | 10418 ft | 395 kts | 15° |
| 2026-05-06 15:20 | 2.38118 | 101.87407 | 9846 ft | 392 kts | 15° |
| 2026-05-06 15:20 | 2.40734 | 101.88089 | 9227 ft | 390 kts | 15° |
| 2026-05-06 15:21 | 2.43369 | 101.88775 | 8612 ft | 387 kts | 15° |
| 2026-05-06 15:21 | 2.45956 | 101.89448 | 8051 ft | 380 kts | 15° |
| 2026-05-06 15:21 | 2.48451 | 101.90025 | 7416 ft | 357 kts | 7° |
| 2026-05-06 15:21 | 2.50832 | 101.89779 | 6390 ft | 336 kts | 339° |
| 2026-05-06 15:22 | 2.52634 | 101.88524 | 5399 ft | 303 kts | 310° |
| 2026-05-06 15:22 | 2.53896 | 101.86947 | 4468 ft | 280 kts | 312° |
| 2026-05-06 15:22 | 2.55270 | 101.85633 | 3399 ft | 269 kts | 321° |
| 2026-05-06 15:22 | 2.56706 | 101.84479 | 2389 ft | 261 kts | 323° |
| 2026-05-06 15:23 | 2.58071 | 101.83514 | 2377 ft | 217 kts | 326° |
| 2026-05-06 15:23 | 2.59279 | 101.82699 | 2452 ft | 203 kts | 326° |
| 2026-05-06 15:23 | 2.60452 | 101.81909 | 2572 ft | 204 kts | 327° |
| 2026-05-06 15:23 | 2.61619 | 101.81125 | 2642 ft | 202 kts | 327° |
| 2026-05-06 15:24 | 2.62781 | 101.80341 | 2639 ft | 205 kts | 327° |
| 2026-05-06 15:24 | 2.63980 | 101.79534 | 2529 ft | 206 kts | 327° |
| 2026-05-06 15:24 | 2.65144 | 101.78750 | 2255 ft | 203 kts | 327° |
| 2026-05-06 15:24 | 2.66307 | 101.77965 | 1998 ft | 201 kts | 327° |
| 2026-05-06 15:25 | 2.67462 | 101.77187 | 1750 ft | 199 kts | 326° |
| 2026-05-06 15:25 | 2.68604 | 101.76417 | 1499 ft | 196 kts | 327° |
| 2026-05-06 15:25 | 2.69733 | 101.75656 | 1247 ft | 195 kts | 327° |
| 2026-05-06 15:25 | 2.70857 | 101.74899 | 997 ft | 195 kts | 327° |
| 2026-05-06 15:26 | 2.71975 | 101.74144 | 780 ft | 188 kts | 326° |
| 2026-05-06 15:26 | 2.73000 | 101.73453 | 547 ft | 168 kts | 326° |
| 2026-05-06 15:26 | 2.73537 | 101.73091 | 410 ft | 157 kts | 326° |
| 2026-05-06 15:26 | 2.74395 | 101.72513 | 214 ft | 141 kts | 326° |
| 2026-05-06 15:27 | 2.75177 | 101.71987 | 57 ft | 129 kts | 326° |
| 2026-05-06 15:27 | 2.75723 | 101.71617 | 55 ft | 43 kts | 326° |
| 2026-05-06 15:27 | 2.75965 | 101.71453 | 59 ft | 42 kts | 326° |
| 2026-05-06 15:27 | 2.76213 | 101.71270 | 57 ft | 45 kts | 309° |
| 2026-05-06 15:28 | 2.76394 | 101.71161 | 55 ft | 30 kts | 317° |
| 2026-05-06 15:28 | 2.76519 | 101.71006 | 53 ft | 30 kts | 307° |
| 2026-05-06 15:28 | 2.76542 | 101.70876 | 52 ft | 18 kts | 217° |
| 2026-05-06 15:28 | 2.76420 | 101.70900 | 53 ft | 20 kts | 143° |
| 2026-05-06 15:29 | 2.76301 | 101.70992 | 56 ft | 24 kts | 155° |
| 2026-05-06 15:29 | 2.76132 | 101.71035 | 54 ft | 27 kts | 171° |
| 2026-05-06 15:29 | 2.75953 | 101.71106 | 53 ft | 29 kts | 142° |
| 2026-05-06 15:29 | 2.75841 | 101.71120 | 53 ft | 13 kts | 208° |
| 2026-05-06 15:30 | 2.75761 | 101.71052 | 55 ft | 17 kts | 220° |
| 2026-05-06 15:30 | 2.75686 | 101.71041 | 55 ft | 0 kts | 155° |